sensor_id;sensor_type;location;lat;lon;timestamp;pressure;altitude;pressure_sealevel;temperature;humidity
40574;BME280;26283;49.020;8.644;2023-05-23T00:01:40;99121.75;;;22.14;56.21
40574;BME280;26283;49.020;8.644;2023-05-23T00:04:07;99121.75;;;22.14;56.18
40574;BME280;26283;49.020;8.644;2023-05-23T00:06:33;99120.12;;;22.13;56.15
40574;BME280;26283;49.020;8.644;2023-05-23T00:08:58;99124.50;;;22.14;56.14
40574;BME280;26283;49.020;8.644;2023-05-23T00:11:24;99127.25;;;22.14;56.10
40574;BME280;26283;49.020;8.644;2023-05-23T00:13:52;99118.50;;;22.12;56.07
40574;BME280;26283;49.020;8.644;2023-05-23T00:16:18;99126.72;;;22.12;56.06
40574;BME280;26283;49.020;8.644;2023-05-23T00:18:43;99122.34;;;22.11;56.04
40574;BME280;26283;49.020;8.644;2023-05-23T00:21:10;99122.34;;;22.11;56.03
40574;BME280;26283;49.020;8.644;2023-05-23T00:23:37;99126.19;;;22.10;56.02
40574;BME280;26283;49.020;8.644;2023-05-23T00:26:06;99127.31;;;22.09;56.00
40574;BME280;26283;49.020;8.644;2023-05-23T00:28:32;99126.53;;;22.08;55.99
40574;BME280;26283;49.020;8.644;2023-05-23T00:30:57;99135.53;;;22.09;55.97
40574;BME280;26283;49.020;8.644;2023-05-23T00:33:22;99128.44;;;22.08;55.96
40574;BME280;26283;49.020;8.644;2023-05-23T00:35:48;99130.38;;;22.07;55.96
40574;BME280;26283;49.020;8.644;2023-05-23T00:38:13;99133.94;;;22.08;55.94
40574;BME280;26283;49.020;8.644;2023-05-23T00:40:39;99135.06;;;22.07;55.94
40574;BME280;26283;49.020;8.644;2023-05-23T00:43:05;99131.78;;;22.05;55.94
40574;BME280;26283;49.020;8.644;2023-05-23T00:45:32;99131.78;;;22.05;55.94
40574;BME280;26283;49.020;8.644;2023-05-23T00:47:58;99132.59;;;22.05;55.95
40574;BME280;26283;49.020;8.644;2023-05-23T00:50:24;99131.78;;;22.05;55.95
40574;BME280;26283;49.020;8.644;2023-05-23T00:52:54;99130.16;;;22.04;55.96
40574;BME280;26283;49.020;8.644;2023-05-23T00:55:20;99128.53;;;22.03;55.96
40574;BME280;26283;49.020;8.644;2023-05-23T00:57:45;99130.75;;;22.01;55.96
40574;BME280;26283;49.020;8.644;2023-05-23T01:00:11;99137.88;;;22.02;55.96
40574;BME280;26283;49.020;8.644;2023-05-23T01:02:41;99134.31;;;22.01;55.98
40574;BME280;26283;49.020;8.644;2023-05-23T01:05:08;99140.06;;;22.00;55.98
40574;BME280;26283;49.020;8.644;2023-05-23T01:07:35;99143.91;;;21.99;55.97
40574;BME280;26283;49.020;8.644;2023-05-23T01:10:01;99138.44;;;21.99;55.97
40574;BME280;26283;49.020;8.644;2023-05-23T01:15:05;99134.03;;;21.98;56.02
40574;BME280;26283;49.020;8.644;2023-05-23T01:17:56;99129.66;;;21.97;56.03
40574;BME280;26283;49.020;8.644;2023-05-23T01:20:29;99137.09;;;21.96;56.03
40574;BME280;26283;49.020;8.644;2023-05-23T01:23:00;99130.78;;;21.96;56.03
40574;BME280;26283;49.020;8.644;2023-05-23T01:25:58;99131.87;;;21.95;56.04
40574;BME280;26283;49.020;8.644;2023-05-23T01:28:31;99130.25;;;21.94;56.09
40574;BME280;26283;49.020;8.644;2023-05-23T01:30:59;99137.66;;;21.93;56.06
40574;BME280;26283;49.020;8.644;2023-05-23T01:33:27;99136.03;;;21.92;56.07
40574;BME280;26283;49.020;8.644;2023-05-23T01:35:56;99140.72;;;21.92;56.07
40574;BME280;26283;49.020;8.644;2023-05-23T01:38:24;99139.06;;;21.90;56.10
40574;BME280;26283;49.020;8.644;2023-05-23T01:40:49;99141.81;;;21.90;56.10
40574;BME280;26283;49.020;8.644;2023-05-23T01:43:15;99142.63;;;21.91;56.11
40574;BME280;26283;49.020;8.644;2023-05-23T01:45:41;99139.37;;;21.89;56.12
40574;BME280;26283;49.020;8.644;2023-05-23T01:48:07;99144.03;;;21.88;56.13
40574;BME280;26283;49.020;8.644;2023-05-23T01:50:33;99139.66;;;21.87;56.14
40574;BME280;26283;49.020;8.644;2023-05-23T01:52:59;99152.28;;;21.88;56.15
40574;BME280;26283;49.020;8.644;2023-05-23T01:55:25;99149.81;;;21.87;56.16
40574;BME280;26283;49.020;8.644;2023-05-23T01:57:54;99148.22;;;21.86;56.16
40574;BME280;26283;49.020;8.644;2023-05-23T02:00:20;99149.03;;;21.86;56.19
40574;BME280;26283;49.020;8.644;2023-05-23T02:02:45;99146.59;;;21.85;56.18
40574;BME280;26283;49.020;8.644;2023-05-23T02:05:11;99152.06;;;21.85;56.19
40574;BME280;26283;49.020;8.644;2023-05-23T02:07:36;99154.00;;;21.84;56.20
40574;BME280;26283;49.020;8.644;2023-05-23T02:10:03;99157.84;;;21.83;56.20
40574;BME280;26283;49.020;8.644;2023-05-23T02:12:28;99157.03;;;21.83;56.21
40574;BME280;26283;49.020;8.644;2023-05-23T02:14:54;99157.84;;;21.83;56.23
40574;BME280;26283;49.020;8.644;2023-05-23T02:17:20;99160.88;;;21.82;56.23
40574;BME280;26283;49.020;8.644;2023-05-23T02:19:46;99153.78;;;21.81;56.25
40574;BME280;26283;49.020;8.644;2023-05-23T02:22:12;99144.72;;;21.80;56.27
40574;BME280;26283;49.020;8.644;2023-05-23T02:24:38;99155.69;;;21.80;56.29
40574;BME280;26283;49.020;8.644;2023-05-23T02:27:03;99155.97;;;21.79;56.29
40574;BME280;26283;49.020;8.644;2023-05-23T02:29:28;99156.81;;;21.79;56.30
40574;BME280;26283;49.020;8.644;2023-05-23T02:31:54;99157.91;;;21.78;56.31
40574;BME280;26283;49.020;8.644;2023-05-23T02:34:19;99157.91;;;21.78;56.32
40574;BME280;26283;49.020;8.644;2023-05-23T02:36:45;99162.87;;;21.76;56.33
40574;BME280;26283;49.020;8.644;2023-05-23T02:39:10;99160.13;;;21.76;56.35
40574;BME280;26283;49.020;8.644;2023-05-23T02:41:35;99162.87;;;21.76;56.34
40574;BME280;26283;49.020;8.644;2023-05-23T02:44:01;99165.91;;;21.75;56.36
40574;BME280;26283;49.020;8.644;2023-05-23T02:46:26;99167.84;;;21.74;56.39
40574;BME280;26283;49.020;8.644;2023-05-23T02:48:52;99164.28;;;21.74;56.40
40574;BME280;26283;49.020;8.644;2023-05-23T02:51:17;99170.87;;;21.73;56.41
40574;BME280;26283;49.020;8.644;2023-05-23T02:53:42;99168.94;;;21.73;56.41
40574;BME280;26283;49.020;8.644;2023-05-23T02:56:08;99170.06;;;21.72;56.43
40574;BME280;26283;49.020;8.644;2023-05-23T02:58:34;99177.47;;;21.72;56.46
40574;BME280;26283;49.020;8.644;2023-05-23T03:01:02;99175.53;;;21.72;56.47
40574;BME280;26283;49.020;8.644;2023-05-23T03:03:28;99173.09;;;21.71;56.49
40574;BME280;26283;49.020;8.644;2023-05-23T03:05:58;99174.19;;;21.70;56.49
40574;BME280;26283;49.020;8.644;2023-05-23T03:08:24;99170.63;;;21.69;56.50
40574;BME280;26283;49.020;8.644;2023-05-23T03:10:49;99175.31;;;21.69;56.50
40574;BME280;26283;49.020;8.644;2023-05-23T03:13:15;99170.09;;;21.67;56.51
40574;BME280;26283;49.020;8.644;2023-05-23T03:15:41;99170.09;;;21.67;56.53
40574;BME280;26283;49.020;8.644;2023-05-23T03:18:06;99170.09;;;21.67;56.54
40574;BME280;26283;49.020;8.644;2023-05-23T03:20:32;99172.84;;;21.67;56.55
40574;BME280;26283;49.020;8.644;2023-05-23T03:22:57;99172.03;;;21.67;56.56
40574;BME280;26283;49.020;8.644;2023-05-23T03:25:23;99175.06;;;21.65;56.60
40574;BME280;26283;49.020;8.644;2023-05-23T03:27:48;99179.75;;;21.65;56.60
40574;BME280;26283;49.020;8.644;2023-05-23T03:30:13;99182.50;;;21.65;56.61
40574;BME280;26283;49.020;8.644;2023-05-23T03:32:39;99178.13;;;21.64;56.62
40574;BME280;26283;49.020;8.644;2023-05-23T03:35:04;99182.81;;;21.63;56.62
40574;BME280;26283;49.020;8.644;2023-05-23T03:37:30;99184.72;;;21.63;56.65
40574;BME280;26283;49.020;8.644;2023-05-23T03:39:55;99183.09;;;21.62;56.68
40574;BME280;26283;49.020;8.644;2023-05-23T03:42:21;99190.50;;;21.61;56.70
40574;BME280;26283;49.020;8.644;2023-05-23T03:44:46;99195.97;;;21.61;56.71
40574;BME280;26283;49.020;8.644;2023-05-23T03:47:11;99196.28;;;21.60;56.73
40574;BME280;26283;49.020;8.644;2023-05-23T03:49:37;99198.19;;;21.59;56.76
40574;BME280;26283;49.020;8.644;2023-05-23T03:52:02;99203.69;;;21.59;56.76
40574;BME280;26283;49.020;8.644;2023-05-23T03:54:28;99199.31;;;21.58;56.77
40574;BME280;26283;49.020;8.644;2023-05-23T03:56:53;99212.19;;;21.58;56.75
40574;BME280;26283;49.020;8.644;2023-05-23T03:59:19;99202.06;;;21.58;56.78
40574;BME280;26283;49.020;8.644;2023-05-23T04:01:44;99203.16;;;21.57;56.78
40574;BME280;26283;49.020;8.644;2023-05-23T04:04:10;99197.16;;;21.55;56.78
40574;BME280;26283;49.020;8.644;2023-05-23T04:06:35;99196.03;;;21.56;56.79
40574;BME280;26283;49.020;8.644;2023-05-23T04:09:01;99197.97;;;21.55;56.82
40574;BME280;26283;49.020;8.644;2023-05-23T04:11:27;99201.00;;;21.54;56.81
40574;BME280;26283;49.020;8.644;2023-05-23T04:13:52;99202.09;;;21.53;56.82
40574;BME280;26283;49.020;8.644;2023-05-23T04:16:18;99202.91;;;21.53;56.83
40574;BME280;26283;49.020;8.644;2023-05-23T04:18:44;99204.84;;;21.53;56.84
40574;BME280;26283;49.020;8.644;2023-05-23T04:21:11;99211.44;;;21.52;56.85
40574;BME280;26283;49.020;8.644;2023-05-23T04:23:36;99205.94;;;21.52;56.88
40574;BME280;26283;49.020;8.644;2023-05-23T04:26:02;99210.63;;;21.51;56.88
40574;BME280;26283;49.020;8.644;2023-05-23T04:28:30;99216.09;;;21.51;56.90
40574;BME280;26283;49.020;8.644;2023-05-23T04:30:56;99216.37;;;21.50;56.91
40574;BME280;26283;49.020;8.644;2023-05-23T04:33:23;99219.12;;;21.50;56.93
40574;BME280;26283;49.020;8.644;2023-05-23T04:35:48;99228.47;;;21.49;56.92
40574;BME280;26283;49.020;8.644;2023-05-23T04:38:14;99222.97;;;21.49;56.94
40574;BME280;26283;49.020;8.644;2023-05-23T04:40:39;99225.72;;;21.49;56.95
40574;BME280;26283;49.020;8.644;2023-05-23T04:43:05;99227.94;;;21.47;56.96
40574;BME280;26283;49.020;8.644;2023-05-23T04:45:33;99231.50;;;21.47;56.97
40574;BME280;26283;49.020;8.644;2023-05-23T04:47:58;99232.59;;;21.46;57.00
40574;BME280;26283;49.020;8.644;2023-05-23T04:50:24;99238.91;;;21.47;57.01
40574;BME280;26283;49.020;8.644;2023-05-23T04:52:49;99238.37;;;21.45;57.01
40574;BME280;26283;49.020;8.644;2023-05-23T04:55:15;99237.25;;;21.46;57.02
40574;BME280;26283;49.020;8.644;2023-05-23T04:57:40;99241.94;;;21.45;57.04
40574;BME280;26283;49.020;8.644;2023-05-23T05:00:06;99243.84;;;21.45;57.05
40574;BME280;26283;49.020;8.644;2023-05-23T05:02:37;99247.69;;;21.44;57.04
40574;BME280;26283;49.020;8.644;2023-05-23T05:05:03;99254.31;;;21.43;57.06
40574;BME280;26283;49.020;8.644;2023-05-23T05:07:29;99254.59;;;21.41;57.07
40574;BME280;26283;49.020;8.644;2023-05-23T05:09:54;99252.69;;;21.42;57.08
40574;BME280;26283;49.020;8.644;2023-05-23T05:12:19;99249.13;;;21.41;57.09
40574;BME280;26283;49.020;8.644;2023-05-23T05:14:45;99245.56;;;21.41;57.10
40574;BME280;26283;49.020;8.644;2023-05-23T05:17:10;99249.41;;;21.40;57.12
40574;BME280;26283;49.020;8.644;2023-05-23T05:19:37;99260.66;;;21.38;57.13
40574;BME280;26283;49.020;8.644;2023-05-23T05:22:02;99251.34;;;21.39;57.14
40574;BME280;26283;49.020;8.644;2023-05-23T05:24:28;99254.37;;;21.38;57.14
40574;BME280;26283;49.020;8.644;2023-05-23T05:26:54;99254.37;;;21.38;57.16
40574;BME280;26283;49.020;8.644;2023-05-23T05:29:20;99252.72;;;21.37;57.16
40574;BME280;26283;49.020;8.644;2023-05-23T05:31:46;99250.28;;;21.35;57.18
40574;BME280;26283;49.020;8.644;2023-05-23T05:34:11;99256.56;;;21.36;57.18
40574;BME280;26283;49.020;8.644;2023-05-23T05:36:37;99261.25;;;21.35;57.18
40574;BME280;26283;49.020;8.644;2023-05-23T05:39:03;99274.12;;;21.35;57.20
40574;BME280;26283;49.020;8.644;2023-05-23T05:41:28;99269.75;;;21.34;57.21
40574;BME280;26283;49.020;8.644;2023-05-23T05:43:53;99268.13;;;21.33;57.23
40574;BME280;26283;49.020;8.644;2023-05-23T05:46:19;99276.06;;;21.34;57.23
40574;BME280;26283;49.020;8.644;2023-05-23T05:48:45;99271.97;;;21.32;57.26
40574;BME280;26283;49.020;8.644;2023-05-23T05:51:11;99276.63;;;21.31;57.26
40574;BME280;26283;49.020;8.644;2023-05-23T05:53:36;99277.44;;;21.32;57.28
40574;BME280;26283;49.020;8.644;2023-05-23T05:56:02;99282.94;;;21.32;57.29
40574;BME280;26283;49.020;8.644;2023-05-23T05:58:27;99281.28;;;21.31;57.30
40574;BME280;26283;49.020;8.644;2023-05-23T06:00:53;99283.22;;;21.30;57.31
40574;BME280;26283;49.020;8.644;2023-05-23T06:03:19;99285.13;;;21.30;57.34
40574;BME280;26283;49.020;8.644;2023-05-23T06:05:44;99296.09;;;21.30;57.34
40574;BME280;26283;49.020;8.644;2023-05-23T06:08:09;99289.78;;;21.29;57.35
40574;BME280;26283;49.020;8.644;2023-05-23T06:10:37;99294.47;;;21.29;57.37
40574;BME280;26283;49.020;8.644;2023-05-23T06:13:03;99297.50;;;21.27;57.40
40574;BME280;26283;49.020;8.644;2023-05-23T06:15:29;99305.72;;;21.27;57.41
40574;BME280;26283;49.020;8.644;2023-05-23T06:17:54;99305.72;;;21.27;57.41
40574;BME280;26283;49.020;8.644;2023-05-23T06:20:19;99308.44;;;21.27;57.43
40574;BME280;26283;49.020;8.644;2023-05-23T06:22:45;99314.22;;;21.26;57.44
40574;BME280;26283;49.020;8.644;2023-05-23T06:25:10;99314.22;;;21.26;57.44
40574;BME280;26283;49.020;8.644;2023-05-23T06:27:36;99316.97;;;21.26;57.45
40574;BME280;26283;49.020;8.644;2023-05-23T06:30:03;99323.53;;;21.25;57.46
40574;BME280;26283;49.020;8.644;2023-05-23T06:32:29;99329.03;;;21.25;57.48
40574;BME280;26283;49.020;8.644;2023-05-23T06:34:54;99323.00;;;21.23;57.48
40574;BME280;26283;49.020;8.644;2023-05-23T06:37:20;99326.56;;;21.23;57.49
40574;BME280;26283;49.020;8.644;2023-05-23T06:39:45;99333.97;;;21.23;57.49
40574;BME280;26283;49.020;8.644;2023-05-23T06:42:11;99336.72;;;21.23;57.51
40574;BME280;26283;49.020;8.644;2023-05-23T06:44:36;99338.63;;;21.22;57.51
40574;BME280;26283;49.020;8.644;2023-05-23T06:47:02;99347.69;;;21.23;57.52
40574;BME280;26283;49.020;8.644;2023-05-23T06:49:27;99354.28;;;21.22;57.54
40574;BME280;26283;49.020;8.644;2023-05-23T06:51:52;99364.12;;;21.23;57.55
40574;BME280;26283;49.020;8.644;2023-05-23T06:54:18;99368.00;;;21.22;57.56
40574;BME280;26283;49.020;8.644;2023-05-23T06:56:44;99369.91;;;21.21;57.57
40574;BME280;26283;49.020;8.644;2023-05-23T06:59:09;99359.19;;;21.19;57.58
40574;BME280;26283;49.020;8.644;2023-05-23T07:01:35;99373.75;;;21.20;57.58
40574;BME280;26283;49.020;8.644;2023-05-23T07:04:00;99372.91;;;21.19;57.59
40574;BME280;26283;49.020;8.644;2023-05-23T07:06:26;99367.44;;;21.19;57.59
40574;BME280;26283;49.020;8.644;2023-05-23T07:08:54;99377.56;;;21.19;57.59
40574;BME280;26283;49.020;8.644;2023-05-23T07:11:22;99371.28;;;21.18;57.59
40574;BME280;26283;49.020;8.644;2023-05-23T07:13:48;99377.03;;;21.17;57.61
40574;BME280;26283;49.020;8.644;2023-05-23T07:16:13;99377.84;;;21.17;57.60
40574;BME280;26283;49.020;8.644;2023-05-23T07:18:39;99380.59;;;21.17;57.61
40574;BME280;26283;49.020;8.644;2023-05-23T07:21:04;99388.28;;;21.15;57.62
40574;BME280;26283;49.020;8.644;2023-05-23T07:23:33;99390.75;;;21.17;57.62
40574;BME280;26283;49.020;8.644;2023-05-23T07:25:59;99390.75;;;21.17;57.64
40574;BME280;26283;49.020;8.644;2023-05-23T07:28:25;99395.41;;;21.16;57.63
40574;BME280;26283;49.020;8.644;2023-05-23T07:30:50;99385.53;;;21.15;57.64
40574;BME280;26283;49.020;8.644;2023-05-23T07:33:15;99393.75;;;21.15;57.64
40574;BME280;26283;49.020;8.644;2023-05-23T07:35:42;99401.97;;;21.15;57.64
40574;BME280;26283;49.020;8.644;2023-05-23T07:38:08;99405.53;;;21.16;57.65
40574;BME280;26283;49.020;8.644;2023-05-23T07:40:33;99404.72;;;21.15;57.65
40574;BME280;26283;49.020;8.644;2023-05-23T07:42:59;99404.72;;;21.15;57.66
40574;BME280;26283;49.020;8.644;2023-05-23T07:45:24;99403.09;;;21.14;57.66
40574;BME280;26283;49.020;8.644;2023-05-23T07:47:50;99405.81;;;21.14;57.66
40574;BME280;26283;49.020;8.644;2023-05-23T07:50:15;99404.72;;;21.15;57.67
40574;BME280;26283;49.020;8.644;2023-05-23T07:52:40;99399.53;;;21.14;57.68
40574;BME280;26283;49.020;8.644;2023-05-23T07:55:06;99401.44;;;21.13;57.68
40574;BME280;26283;49.020;8.644;2023-05-23T07:57:32;99400.63;;;21.13;57.69
40574;BME280;26283;49.020;8.644;2023-05-23T07:59:57;99406.94;;;21.13;57.69
40574;BME280;26283;49.020;8.644;2023-05-23T08:02:23;99402.25;;;21.14;57.70
40574;BME280;26283;49.020;8.644;2023-05-23T08:04:48;99406.94;;;21.13;57.70
40574;BME280;26283;49.020;8.644;2023-05-23T08:07:14;99400.91;;;21.11;57.70
40574;BME280;26283;49.020;8.644;2023-05-23T08:09:40;99405.28;;;21.12;57.71
40574;BME280;26283;49.020;8.644;2023-05-23T08:12:06;99409.94;;;21.12;57.71
40574;BME280;26283;49.020;8.644;2023-05-23T08:14:32;99400.91;;;21.11;57.70
40574;BME280;26283;49.020;8.644;2023-05-23T08:16:57;99406.37;;;21.11;57.70
40574;BME280;26283;49.020;8.644;2023-05-23T08:19:23;99406.37;;;21.11;57.71
40574;BME280;26283;49.020;8.644;2023-05-23T08:21:48;99409.13;;;21.11;57.71
40574;BME280;26283;49.020;8.644;2023-05-23T08:24:14;99418.44;;;21.10;57.71
40574;BME280;26283;49.020;8.644;2023-05-23T08:26:39;99415.72;;;21.10;57.72
40574;BME280;26283;49.020;8.644;2023-05-23T08:29:06;99412.97;;;21.10;57.72
40574;BME280;26283;49.020;8.644;2023-05-23T08:31:33;99411.34;;;21.09;57.73
40574;BME280;26283;49.020;8.644;2023-05-23T08:33:59;99412.97;;;21.10;57.74
40574;BME280;26283;49.020;8.644;2023-05-23T08:36:24;99420.38;;;21.10;57.73
40574;BME280;26283;49.020;8.644;2023-05-23T08:38:50;99417.91;;;21.08;57.74
40574;BME280;26283;49.020;8.644;2023-05-23T08:41:23;99421.47;;;21.09;57.75
40574;BME280;26283;49.020;8.644;2023-05-23T08:43:49;99424.22;;;21.09;57.78
40574;BME280;26283;49.020;8.644;2023-05-23T08:46:15;99422.28;;;21.09;57.76
40574;BME280;26283;49.020;8.644;2023-05-23T08:48:42;99427.78;;;21.09;57.77
40574;BME280;26283;49.020;8.644;2023-05-23T08:51:09;99431.63;;;21.08;57.77
40574;BME280;26283;49.020;8.644;2023-05-23T08:53:37;99433.25;;;21.09;57.78
40574;BME280;26283;49.020;8.644;2023-05-23T08:56:05;99434.34;;;21.08;57.78
40574;BME280;26283;49.020;8.644;2023-05-23T08:58:34;99436.28;;;21.08;57.79
40574;BME280;26283;49.020;8.644;2023-05-23T09:00:59;99432.72;;;21.07;57.80
40574;BME280;26283;49.020;8.644;2023-05-23T09:03:26;99428.87;;;21.08;57.79
40574;BME280;26283;49.020;8.644;2023-05-23T09:05:53;99435.44;;;21.07;57.81
40574;BME280;26283;49.020;8.644;2023-05-23T09:08:19;99432.72;;;21.07;57.81
40574;BME280;26283;49.020;8.644;2023-05-23T09:10:44;99440.94;;;21.07;57.82
40574;BME280;26283;49.020;8.644;2023-05-23T09:13:10;99435.44;;;21.07;57.82
40574;BME280;26283;49.020;8.644;2023-05-23T09:15:35;99442.84;;;21.07;57.83
40574;BME280;26283;49.020;8.644;2023-05-23T09:18:01;99447.50;;;21.06;57.83
40574;BME280;26283;49.020;8.644;2023-05-23T09:20:27;99450.25;;;21.06;57.84
40574;BME280;26283;49.020;8.644;2023-05-23T09:22:53;99450.25;;;21.06;57.84
40574;BME280;26283;49.020;8.644;2023-05-23T09:25:19;99453.00;;;21.06;57.84
40574;BME280;26283;49.020;8.644;2023-05-23T09:27:45;99450.25;;;21.06;57.85
40574;BME280;26283;49.020;8.644;2023-05-23T09:30:11;99454.09;;;21.05;57.84
40574;BME280;26283;49.020;8.644;2023-05-23T09:32:37;99442.31;;;21.05;57.84
40574;BME280;26283;49.020;8.644;2023-05-23T09:35:07;99453.28;;;21.05;57.84
40574;BME280;26283;49.020;8.644;2023-05-23T09:39:03;99449.41;;;21.55;56.85
40574;BME280;26283;49.020;8.644;2023-05-23T09:41:35;99449.41;;;21.55;56.85
40574;BME280;26283;49.020;8.644;2023-05-23T09:44:05;99445.59;;;21.07;57.70
40574;BME280;26283;49.020;8.644;2023-05-23T09:46:34;99449.44;;;21.06;57.82
40574;BME280;26283;49.020;8.644;2023-05-23T09:49:00;99449.72;;;21.04;57.84
40574;BME280;26283;49.020;8.644;2023-05-23T09:51:25;99450.00;;;21.03;57.85
40574;BME280;26283;49.020;8.644;2023-05-23T09:53:50;99450.81;;;21.03;57.86
40574;BME280;26283;49.020;8.644;2023-05-23T09:56:17;99449.72;;;21.04;57.86
40574;BME280;26283;49.020;8.644;2023-05-23T09:58:47;99448.06;;;21.03;57.87
40574;BME280;26283;49.020;8.644;2023-05-23T10:01:14;99447.25;;;21.03;57.88
40574;BME280;26283;49.020;8.644;2023-05-23T10:08:56;99445.34;;;21.03;57.89
40574;BME280;26283;49.020;8.644;2023-05-23T10:14:00;99445.34;;;21.03;57.87
40574;BME280;26283;49.020;8.644;2023-05-23T10:16:33;99451.91;;;21.02;57.88
40574;BME280;26283;49.020;8.644;2023-05-23T10:19:06;99444.78;;;21.01;57.90
40574;BME280;26283;49.020;8.644;2023-05-23T10:21:39;99455.47;;;21.03;57.89
40574;BME280;26283;49.020;8.644;2023-05-23T10:24:10;99449.19;;;21.02;57.91
40574;BME280;26283;49.020;8.644;2023-05-23T10:26:36;99460.13;;;21.02;57.90
40574;BME280;26283;49.020;8.644;2023-05-23T10:29:01;99450.00;;;21.03;57.90
40574;BME280;26283;49.020;8.644;2023-05-23T10:31:27;99449.19;;;21.02;57.90
40574;BME280;26283;49.020;8.644;2023-05-23T10:36:47;99460.13;;;21.02;57.94
40574;BME280;26283;49.020;8.644;2023-05-23T10:39:18;99453.84;;;21.02;57.91
40574;BME280;26283;49.020;8.644;2023-05-23T10:41:59;99460.13;;;21.02;57.90
40574;BME280;26283;49.020;8.644;2023-05-23T10:44:29;99451.09;;;21.02;57.94
40574;BME280;26283;49.020;8.644;2023-05-23T10:47:04;99456.56;;;21.02;57.92
40574;BME280;26283;49.020;8.644;2023-05-23T10:49:45;99454.66;;;21.02;57.94
40574;BME280;26283;49.020;8.644;2023-05-23T10:52:17;99457.41;;;21.02;57.94
40574;BME280;26283;49.020;8.644;2023-05-23T10:54:50;99450.00;;;21.03;57.90
40574;BME280;26283;49.020;8.644;2023-05-23T10:57:20;99447.25;;;21.03;57.90
40574;BME280;26283;49.020;8.644;2023-05-23T10:59:50;99445.34;;;21.03;57.90
40574;BME280;26283;49.020;8.644;2023-05-23T11:02:18;99446.44;;;21.02;57.91
40574;BME280;26283;49.020;8.644;2023-05-23T11:07:41;99450.81;;;21.03;57.94
40574;BME280;26283;49.020;8.644;2023-05-23T11:10:10;99450.00;;;21.03;57.89
40574;BME280;26283;49.020;8.644;2023-05-23T11:12:38;99447.78;;;21.05;57.92
40574;BME280;26283;49.020;8.644;2023-05-23T11:17:54;99451.63;;;21.04;57.93
40574;BME280;26283;49.020;8.644;2023-05-23T11:20:23;99452.47;;;21.04;57.92
40574;BME280;26283;49.020;8.644;2023-05-23T11:22:59;99456.28;;;21.03;57.90
40574;BME280;26283;49.020;8.644;2023-05-23T11:25:43;99455.19;;;21.04;57.92
40574;BME280;26283;49.020;8.644;2023-05-23T11:28:11;99455.19;;;21.04;57.92
40574;BME280;26283;49.020;8.644;2023-05-23T11:30:37;99454.38;;;21.04;57.88
40574;BME280;26283;49.020;8.644;2023-05-23T11:33:08;99453.28;;;21.05;57.89
40574;BME280;26283;49.020;8.644;2023-05-23T11:35:36;99451.63;;;21.04;57.89
40574;BME280;26283;49.020;8.644;2023-05-23T11:38:03;99448.62;;;21.05;57.88
40574;BME280;26283;49.020;8.644;2023-05-23T11:40:34;99444.78;;;21.06;57.90
40574;BME280;26283;49.020;8.644;2023-05-23T11:43:05;99444.78;;;21.06;57.88
40574;BME280;26283;49.020;8.644;2023-05-23T11:45:32;99444.78;;;21.06;57.87
40574;BME280;26283;49.020;8.644;2023-05-23T11:48:01;99444.78;;;21.06;57.86
40574;BME280;26283;49.020;8.644;2023-05-23T11:50:28;99440.94;;;21.07;57.85
40574;BME280;26283;49.020;8.644;2023-05-23T11:52:54;99444.50;;;21.08;57.84
40574;BME280;26283;49.020;8.644;2023-05-23T11:55:19;99434.34;;;21.08;57.83
40574;BME280;26283;49.020;8.644;2023-05-23T11:57:46;99433.25;;;21.09;57.82
40574;BME280;26283;49.020;8.644;2023-05-23T12:00:12;99433.25;;;21.09;57.81
40574;BME280;26283;49.020;8.644;2023-05-23T12:02:42;99430.50;;;21.09;57.81
40574;BME280;26283;49.020;8.644;2023-05-23T12:05:12;99434.88;;;21.10;57.80
40574;BME280;26283;49.020;8.644;2023-05-23T12:07:46;99434.88;;;21.10;57.80
40574;BME280;26283;49.020;8.644;2023-05-23T12:10:13;99446.38;;;21.12;57.79
40574;BME280;26283;49.020;8.644;2023-05-23T12:12:40;99442.81;;;21.12;57.76
40574;BME280;26283;49.020;8.644;2023-05-23T12:15:07;99447.50;;;21.11;57.76
40574;BME280;26283;49.020;8.644;2023-05-23T12:17:33;99442.81;;;21.12;57.76
40574;BME280;26283;49.020;8.644;2023-05-23T12:19:58;99447.50;;;21.11;57.74
40574;BME280;26283;49.020;8.644;2023-05-23T12:22:24;99440.91;;;21.12;57.75
40574;BME280;26283;49.020;8.644;2023-05-23T12:24:53;99445.28;;;21.13;57.74
40574;BME280;26283;49.020;8.644;2023-05-23T12:27:30;99442.81;;;21.12;57.73
40574;BME280;26283;49.020;8.644;2023-05-23T12:30:16;99439.81;;;21.13;57.74
40574;BME280;26283;49.020;8.644;2023-05-23T12:32:43;99445.28;;;21.13;57.75
40574;BME280;26283;49.020;8.644;2023-05-23T12:35:10;99444.47;;;21.13;57.72
40574;BME280;26283;49.020;8.644;2023-05-23T12:37:47;99438.16;;;21.12;57.72
40574;BME280;26283;49.020;8.644;2023-05-23T12:40:17;99439.81;;;21.13;57.72
40574;BME280;26283;49.020;8.644;2023-05-23T12:42:50;99436.78;;;21.15;57.70
40574;BME280;26283;49.020;8.644;2023-05-23T12:45:16;99437.87;;;21.14;57.70
40574;BME280;26283;49.020;8.644;2023-05-23T12:47:42;99438.44;;;21.16;57.68
40574;BME280;26283;49.020;8.644;2023-05-23T12:50:08;99439.53;;;21.15;57.67
40574;BME280;26283;49.020;8.644;2023-05-23T12:52:35;99437.59;;;21.15;57.66
40574;BME280;26283;49.020;8.644;2023-05-23T12:55:02;99434.88;;;21.15;57.65
40574;BME280;26283;49.020;8.644;2023-05-23T12:57:27;99435.69;;;21.16;57.64
40574;BME280;26283;49.020;8.644;2023-05-23T12:59:52;99434.88;;;21.15;57.63
40574;BME280;26283;49.020;8.644;2023-05-23T13:02:18;99428.28;;;21.16;57.62
40574;BME280;26283;49.020;8.644;2023-05-23T13:04:43;99430.75;;;21.18;57.60
40574;BME280;26283;49.020;8.644;2023-05-23T13:07:09;99423.63;;;21.17;57.58
40574;BME280;26283;49.020;8.644;2023-05-23T13:09:34;99427.19;;;21.17;57.57
40574;BME280;26283;49.020;8.644;2023-05-23T13:11:59;99429.94;;;21.17;57.56
40574;BME280;26283;49.020;8.644;2023-05-23T13:14:25;99426.09;;;21.18;57.54
40574;BME280;26283;49.020;8.644;2023-05-23T13:16:50;99422.25;;;21.19;57.54
40574;BME280;26283;49.020;8.644;2023-05-23T13:19:16;99422.25;;;21.19;57.52